createdAt,value
2023-02-28T00:02:21.407Z,100740.22
2023-02-28T00:04:54.067Z,100739.41
2023-02-28T00:07:23.950Z,100692.34
2023-02-28T00:09:52.369Z,100689.03
2023-02-28T00:12:20.239Z,100740.56
2023-02-28T00:14:48.488Z,100738.88
2023-02-28T00:17:18.985Z,100743.31
2023-02-28T00:19:46.983Z,100733.84
2023-02-28T00:22:16.564Z,100722.75
2023-02-28T00:24:44.736Z,100743.31
2023-02-28T00:27:12.964Z,100684.13
2023-02-28T00:29:41.450Z,100740.75
2023-02-28T00:32:09.366Z,100743.38
2023-02-28T00:34:39.453Z,100739.06
2023-02-28T00:37:10.158Z,100694.44
2023-02-28T00:39:39.683Z,100743.47
2023-02-28T00:42:08.928Z,100753.91
2023-02-28T00:44:37.354Z,100746.97
2023-02-28T00:47:05.903Z,100752.19
2023-02-28T00:49:34.554Z,100705.00
2023-02-28T00:52:04.182Z,100734.94
2023-02-28T00:54:32.237Z,100650.09
2023-02-28T00:57:00.987Z,100741.88
2023-02-28T00:59:29.041Z,100755.88
2023-02-28T01:01:57.110Z,100753.19
2023-02-28T01:04:25.512Z,100695.66
2023-02-28T01:06:53.615Z,100705.97
2023-02-28T01:09:21.669Z,100738.31
2023-02-28T01:11:49.970Z,100750.38
2023-02-28T01:14:19.507Z,100705.84
2023-02-28T01:16:47.607Z,100749.53
2023-02-28T01:19:15.723Z,100745.34
2023-02-28T01:21:43.859Z,100743.88
2023-02-28T01:24:14.484Z,100738.94
2023-02-28T01:26:42.625Z,100735.66
2023-02-28T01:29:10.714Z,100698.13
2023-02-28T01:31:38.867Z,100747.09
2023-02-28T01:34:10.157Z,100722.16
2023-02-28T01:36:38.426Z,100729.09
2023-02-28T01:39:06.331Z,100731.66
2023-02-28T01:41:36.057Z,100731.75
2023-02-28T01:44:47.637Z,100742.91
2023-02-28T01:47:16.461Z,100744.72
2023-02-28T01:49:44.419Z,100735.22
2023-02-28T01:52:19.174Z,100711.16
2023-02-28T01:54:57.812Z,100747.28
2023-02-28T01:57:44.481Z,100754.25
2023-02-28T02:00:16.850Z,100694.22
2023-02-28T02:02:52.705Z,100749.06
2023-02-28T02:05:24.540Z,100737.16
2023-02-28T02:08:12.725Z,100756.16
2023-02-28T02:10:52.575Z,100755.34
2023-02-28T02:13:59.799Z,100560.72
2023-02-28T02:17:14.975Z,100727.75
2023-02-28T02:20:13.887Z,100763.81
2023-02-28T02:23:00.884Z,100736.25
2023-02-28T02:25:47.324Z,100762.91
2023-02-28T02:28:52.710Z,100776.00
2023-02-28T02:31:36.022Z,100776.94
2023-02-28T02:34:26.105Z,100786.53
2023-02-28T02:37:30.140Z,100722.28
2023-02-28T02:40:10.484Z,100783.31
2023-02-28T02:42:58.334Z,100779.88
2023-02-28T02:45:37.485Z,100737.81
2023-02-28T02:48:11.438Z,100729.22
2023-02-28T02:50:52.638Z,100790.25
2023-02-28T02:53:28.696Z,100791.94
2023-02-28T02:55:59.062Z,100754.16
2023-02-28T02:58:33.340Z,100765.28
2023-02-28T03:01:05.303Z,100734.44
2023-02-28T03:03:35.699Z,100737.84
2023-02-28T03:06:05.309Z,100793.63
2023-02-28T03:08:39.040Z,100798.78
2023-02-28T03:11:15.923Z,100786.63
2023-02-28T03:14:12.716Z,100789.97
2023-02-28T03:16:51.152Z,100791.66
2023-02-28T03:20:11.844Z,100788.09
2023-02-28T03:23:22.758Z,100790.72
2023-02-28T03:26:08.603Z,100728.13
2023-02-28T03:28:59.362Z,100795.94
2023-02-28T03:32:01.023Z,100799.34
2023-02-28T03:34:38.365Z,100759.81
2023-02-28T03:37:14.675Z,100796.63
2023-02-28T03:40:00.491Z,100750.28
2023-02-28T03:42:35.055Z,100789.69
2023-02-28T03:45:18.490Z,100787.09
2023-02-28T03:48:39.748Z,100799.09
2023-02-28T03:51:12.618Z,100801.66
2023-02-28T03:54:03.542Z,100796.34
2023-02-28T03:56:49.239Z,100808.28
2023-02-28T03:59:58.668Z,100804.59
2023-02-28T04:02:26.906Z,100799.34
2023-02-28T04:04:55.459Z,100806.09
2023-02-28T04:07:23.799Z,100802.66
2023-02-28T04:09:52.822Z,100803.50
2023-02-28T04:12:22.286Z,100811.31
2023-02-28T04:14:51.139Z,100744.53
2023-02-28T04:17:19.892Z,100808.13
2023-02-28T04:19:47.898Z,100760.22
2023-02-28T04:22:16.061Z,100749.91
2023-02-28T04:24:44.205Z,100810.72
2023-02-28T04:27:12.336Z,100812.41
2023-02-28T04:29:40.389Z,100813.19
2023-02-28T04:32:09.212Z,100810.59
2023-02-28T04:34:37.730Z,100805.47
2023-02-28T04:37:14.406Z,100802.06
2023-02-28T04:39:43.893Z,100746.50
2023-02-28T04:42:13.428Z,100808.41
2023-02-28T04:44:41.481Z,100820.56
2023-02-28T04:47:09.501Z,100814.38
2023-02-28T04:49:37.685Z,100810.94
2023-02-28T04:52:06.327Z,100752.69
2023-02-28T04:54:34.288Z,100818.00
2023-02-28T04:57:02.934Z,100821.47
2023-02-28T04:59:30.970Z,100817.19
2023-02-28T05:01:59.625Z,100803.34
2023-02-28T05:04:27.675Z,100781.03
2023-02-28T05:06:56.439Z,100750.44
2023-02-28T05:09:24.495Z,100776.47
2023-02-28T05:11:52.634Z,100821.97
2023-02-28T05:14:20.641Z,100828.78
2023-02-28T05:16:48.572Z,100780.75
2023-02-28T05:19:17.019Z,100779.06
2023-02-28T05:21:54.411Z,100830.56
2023-02-28T05:24:25.466Z,100824.53
2023-02-28T05:26:55.500Z,100829.75
2023-02-28T05:29:24.116Z,100802.28
2023-02-28T05:31:52.452Z,100829.03
2023-02-28T05:34:20.604Z,100823.88
2023-02-28T05:36:49.259Z,100820.47
2023-02-28T05:39:18.011Z,100828.22
2023-02-28T05:41:45.962Z,100795.63
2023-02-28T05:44:14.173Z,100823.75
2023-02-28T05:46:42.162Z,100832.31
2023-02-28T05:49:10.252Z,100772.25
2023-02-28T05:51:40.964Z,100839.91
2023-02-28T05:54:09.565Z,100838.06
2023-02-28T05:56:40.247Z,100842.16
2023-02-28T05:59:08.402Z,100849.75
2023-02-28T06:01:49.497Z,100848.59
2023-02-28T06:04:31.534Z,100857.03
2023-02-28T06:07:00.708Z,100857.50
2023-02-28T06:09:29.065Z,100859.00
2023-02-28T06:12:01.196Z,100806.59
2023-02-28T06:14:29.767Z,100816.94
2023-02-28T06:16:59.226Z,100880.50
2023-02-28T06:19:27.943Z,100895.13
2023-02-28T06:21:58.172Z,100870.84
2023-02-28T06:24:29.171Z,100878.44
2023-02-28T06:26:57.359Z,100776.22
2023-02-28T06:29:25.836Z,100821.41
2023-02-28T06:31:53.851Z,100881.22
2023-02-28T06:34:22.307Z,100869.09
2023-02-28T06:36:53.017Z,100891.34
2023-02-28T06:39:21.417Z,100843.78
2023-02-28T06:41:55.306Z,100852.69
2023-02-28T06:44:25.790Z,100878.09
2023-02-28T06:46:54.163Z,100881.38
2023-02-28T06:49:22.159Z,100881.94
2023-02-28T06:51:51.166Z,100884.22
2023-02-28T06:54:20.883Z,100890.03
2023-02-28T06:56:48.999Z,100832.19
2023-02-28T06:59:18.443Z,100860.25
2023-02-28T07:01:46.727Z,100868.44
2023-02-28T07:04:15.176Z,100877.59
2023-02-28T07:06:43.561Z,100864.09
2023-02-28T07:09:12.597Z,100865.25
2023-02-28T07:11:42.091Z,100885.81
2023-02-28T07:14:10.559Z,100874.53
2023-02-28T07:16:38.714Z,100876.47
2023-02-28T07:19:06.653Z,100826.31
2023-02-28T07:21:34.851Z,100827.69
2023-02-28T07:24:03.016Z,100866.66
2023-02-28T07:26:31.083Z,100866.66
2023-02-28T07:28:59.319Z,100828.09
2023-02-28T07:31:27.684Z,100849.03
2023-02-28T07:33:57.548Z,100840.88
2023-02-28T07:36:25.892Z,100827.59
2023-02-28T07:38:54.389Z,100835.75
2023-02-28T07:41:25.858Z,100834.38
2023-02-28T07:43:56.791Z,100837.06
2023-02-28T07:46:24.852Z,100829.50
2023-02-28T07:48:54.009Z,100833.41
2023-02-28T07:51:24.341Z,100837.69
2023-02-28T07:53:52.493Z,100745.16
2023-02-28T07:56:20.510Z,100819.03
2023-02-28T07:58:48.679Z,100825.38
2023-02-28T08:01:18.572Z,100817.41
2023-02-28T08:03:46.703Z,100788.66
2023-02-28T08:06:24.771Z,100810.06
2023-02-28T08:08:54.275Z,100741.84
2023-02-28T08:11:22.406Z,100744.28
2023-02-28T08:13:50.770Z,100801.53
2023-02-28T08:16:23.258Z,100774.81
2023-02-28T08:18:53.208Z,100799.25
2023-02-28T08:21:22.225Z,100786.03
2023-02-28T08:23:52.110Z,100793.97
2023-02-28T08:26:21.704Z,100803.44
2023-02-28T08:28:50.296Z,100715.03
2023-02-28T08:31:19.144Z,100779.72
2023-02-28T08:33:49.880Z,100781.59
2023-02-28T08:36:18.964Z,100785.66
2023-02-28T08:38:47.205Z,100766.09
2023-02-28T08:41:15.879Z,100726.94
2023-02-28T08:43:44.210Z,100731.41
2023-02-28T08:46:15.928Z,100771.84
2023-02-28T08:48:45.135Z,100773.09
2023-02-28T08:51:19.830Z,100737.84
2023-02-28T08:53:50.491Z,100725.03
2023-02-28T08:56:18.815Z,100772.75
2023-02-28T08:58:49.432Z,100770.34
2023-02-28T09:01:24.602Z,100769.59
2023-02-28T09:03:53.297Z,100765.78
2023-02-28T09:06:25.409Z,100770.19
2023-02-28T09:08:53.890Z,100773.53
2023-02-28T09:11:22.449Z,100771.59
2023-02-28T09:13:50.621Z,100775.59
2023-02-28T09:16:19.491Z,100771.47
2023-02-28T09:18:47.882Z,100763.75
2023-02-28T09:21:19.198Z,100789.59
2023-02-28T09:23:50.616Z,100772.72
2023-02-28T09:26:23.300Z,100769.75
2023-02-28T09:28:53.382Z,100786.03
2023-02-28T09:31:29.205Z,100771.00
2023-02-28T09:33:58.627Z,100732.31
2023-02-28T09:36:41.787Z,100778.03
2023-02-28T09:39:14.119Z,100787.47
2023-02-28T09:41:51.781Z,100734.06
2023-02-28T09:44:39.361Z,100782.09
2023-02-28T09:47:14.772Z,100725.75
2023-02-28T09:49:48.069Z,100742.69
2023-02-28T09:52:33.513Z,100776.72
2023-02-28T09:55:16.247Z,100780.16
2023-02-28T09:57:45.084Z,100783.16
2023-02-28T10:00:36.555Z,100779.88
2023-02-28T10:03:54.550Z,100763.94
2023-02-28T10:06:31.606Z,100726.38
2023-02-28T10:09:16.625Z,100779.38
2023-02-28T10:14:25.072Z,100706.53
2023-02-28T10:17:00.503Z,100744.44
2023-02-28T10:20:08.819Z,100708.25
2023-02-28T10:23:10.053Z,100706.47
2023-02-28T10:25:40.382Z,100743.47
2023-02-28T10:28:14.367Z,100680.72
2023-02-28T10:30:54.943Z,100736.81
2023-02-28T10:33:38.151Z,100722.19
2023-02-28T10:36:10.677Z,100666.94
2023-02-28T10:38:40.851Z,100735.00
2023-02-28T10:41:35.964Z,100744.91
2023-02-28T10:44:24.484Z,100668.19
2023-02-28T10:46:53.372Z,100743.22
2023-02-28T10:49:24.145Z,100716.94
2023-02-28T10:52:01.874Z,100687.63
2023-02-28T10:54:38.864Z,100720.03
2023-02-28T10:57:22.124Z,100721.59
2023-02-28T11:00:06.514Z,100698.81
2023-02-28T11:02:39.509Z,100705.78
2023-02-28T11:05:38.051Z,100700.09
2023-02-28T11:08:17.852Z,100677.34
2023-02-28T11:10:59.528Z,100675.34
2023-02-28T11:13:37.166Z,100681.91
2023-02-28T11:16:13.927Z,100677.63
2023-02-28T11:18:57.044Z,100682.31
2023-02-28T11:21:41.469Z,100680.50
2023-02-28T11:24:32.476Z,100675.63
2023-02-28T11:27:00.669Z,100645.25
2023-02-28T11:29:32.912Z,100620.59
2023-02-28T11:32:19.961Z,100669.06
2023-02-28T11:35:03.779Z,100668.56
2023-02-28T11:37:33.782Z,100619.72
2023-02-28T11:40:01.918Z,100609.06
2023-02-28T11:42:59.063Z,100658.53
2023-02-28T11:45:48.095Z,100667.81
2023-02-28T11:48:50.618Z,100665.09
2023-02-28T11:51:29.936Z,100610.91
2023-02-28T11:54:29.561Z,100677.88
2023-02-28T11:57:23.401Z,100675.03
2023-02-28T12:00:02.357Z,100653.72
2023-02-28T12:02:47.313Z,100670.69
2023-02-28T12:05:40.237Z,100671.31
2023-02-28T12:08:23.082Z,100657.03
2023-02-28T12:11:53.283Z,100652.75
2023-02-28T12:15:14.292Z,100637.63
2023-02-28T12:18:00.273Z,100580.19
2023-02-28T12:20:52.504Z,100650.81
2023-02-28T12:23:38.933Z,100645.41
2023-02-28T12:26:35.964Z,100593.19
2023-02-28T12:29:21.713Z,100621.63
2023-02-28T12:31:53.852Z,100639.94
2023-02-28T12:34:29.962Z,100620.16
2023-02-28T12:37:02.762Z,100586.72
2023-02-28T12:39:50.437Z,100618.84
2023-02-28T12:42:25.806Z,100575.31
2023-02-28T12:45:11.336Z,100589.47
2023-02-28T12:47:43.622Z,100556.06
2023-02-28T12:50:13.393Z,100565.47
2023-02-28T12:52:54.646Z,100613.53
2023-02-28T12:55:53.079Z,100618.44
2023-02-28T12:58:44.070Z,100600.97
2023-02-28T13:01:45.823Z,100602.38
2023-02-28T13:04:41.467Z,100622.78
2023-02-28T13:07:44.989Z,100606.31
2023-02-28T13:10:15.077Z,100602.47
2023-02-28T13:12:52.232Z,100599.16
2023-02-28T13:15:31.337Z,100582.13
2023-02-28T13:18:02.315Z,100586.13
2023-02-28T13:20:48.186Z,100571.09
2023-02-28T13:23:41.945Z,100593.78
2023-02-28T13:26:10.195Z,100564.84
2023-02-28T13:28:55.042Z,100576.06
2023-02-28T13:31:23.398Z,100566.44
2023-02-28T13:33:56.041Z,100576.97
2023-02-28T13:36:33.815Z,100575.16
2023-02-28T13:39:44.974Z,100565.19
2023-02-28T13:42:32.755Z,100586.72
2023-02-28T13:45:03.794Z,100554.72
2023-02-28T13:47:40.631Z,100580.34
2023-02-28T13:50:32.747Z,100585.19
2023-02-28T13:53:12.786Z,100528.34
2023-02-28T13:56:08.873Z,100558.16
2023-02-28T13:59:01.395Z,100555.09
2023-02-28T14:01:56.738Z,100548.28
2023-02-28T14:04:45.898Z,100503.06
2023-02-28T14:07:26.529Z,100570.81
2023-02-28T14:10:21.208Z,100572.41
2023-02-28T14:13:27.041Z,100556.97
2023-02-28T14:16:10.173Z,100566.53
2023-02-28T14:18:48.984Z,100517.53
2023-02-28T14:21:32.864Z,100563.38
2023-02-28T14:24:17.111Z,100567.09
2023-02-28T14:27:27.409Z,100552.59
2023-02-28T14:30:37.428Z,100577.97
2023-02-28T14:33:27.756Z,100559.84
2023-02-28T14:36:39.181Z,100575.34
2023-02-28T14:39:16.307Z,100573.66
2023-02-28T14:41:46.306Z,100569.16
2023-02-28T14:44:21.478Z,100581.91
2023-02-28T14:47:07.129Z,100565.31
2023-02-28T14:49:46.847Z,100513.28
2023-02-28T14:52:24.869Z,100547.66
2023-02-28T14:55:15.922Z,100545.88
2023-02-28T14:57:58.549Z,100542.53
2023-02-28T15:00:32.676Z,100538.00
2023-02-28T15:03:02.827Z,100538.19
2023-02-28T15:05:35.072Z,100488.88
2023-02-28T15:08:17.717Z,100546.41
2023-02-28T15:11:14.602Z,100539.84
2023-02-28T15:13:51.691Z,100538.50
2023-02-28T15:16:52.832Z,100498.97
2023-02-28T15:19:30.655Z,100525.59
2023-02-28T15:22:08.886Z,100527.38
2023-02-28T15:24:43.750Z,100546.03
2023-02-28T15:27:34.174Z,100540.75
2023-02-28T15:30:25.740Z,100428.06
2023-02-28T15:33:22.864Z,100546.91
2023-02-28T15:35:52.365Z,100528.94
2023-02-28T15:38:28.537Z,100559.13
2023-02-28T15:41:00.691Z,100557.31
2023-02-28T15:43:40.343Z,100577.59
2023-02-28T15:46:12.644Z,100526.91
2023-02-28T15:48:56.859Z,100575.19
2023-02-28T15:51:37.687Z,100578.84
2023-02-28T15:54:20.508Z,100533.78
2023-02-28T15:56:54.460Z,100584.72
2023-02-28T15:59:32.467Z,100592.19
2023-02-28T16:02:20.923Z,100546.72
2023-02-28T16:05:09.001Z,100591.31
2023-02-28T16:07:45.348Z,100515.59
2023-02-28T16:10:17.304Z,100584.47
2023-02-28T16:12:45.955Z,100600.63
2023-02-28T16:15:30.154Z,100602.31
2023-02-28T16:17:59.366Z,100612.31
2023-02-28T16:20:32.454Z,100610.22
2023-02-28T16:23:04.269Z,100598.28
2023-02-28T16:25:41.839Z,100580.63
2023-02-28T16:28:26.894Z,100635.63
2023-02-28T16:30:55.848Z,100634.38
2023-02-28T16:33:23.984Z,100651.41
2023-02-28T16:35:52.179Z,100588.53
2023-02-28T16:38:20.705Z,100641.38
2023-02-28T16:40:51.908Z,100654.53
2023-02-28T16:43:24.548Z,100650.88
2023-02-28T16:46:01.538Z,100656.50
2023-02-28T16:48:31.957Z,100656.34
2023-02-28T16:51:00.090Z,100661.66
2023-02-28T16:53:27.998Z,100648.31
2023-02-28T16:55:56.366Z,100673.59
2023-02-28T16:58:26.710Z,100659.94
2023-02-28T17:00:54.902Z,100671.59
2023-02-28T17:03:33.627Z,100666.72
2023-02-28T17:06:02.705Z,100681.88
2023-02-28T17:08:33.670Z,100676.09
2023-02-28T17:11:05.102Z,100661.66
2023-02-28T17:13:37.822Z,100672.22
2023-02-28T17:16:07.195Z,100641.75
2023-02-28T17:18:35.942Z,100671.09
2023-02-28T17:21:04.537Z,100682.63
2023-02-28T17:23:32.566Z,100637.59
2023-02-28T17:26:00.730Z,100666.78
2023-02-28T17:28:29.011Z,100594.47
2023-02-28T17:30:57.629Z,100680.97
2023-02-28T17:33:26.036Z,100632.28
2023-02-28T17:35:54.696Z,100676.16
2023-02-28T17:38:24.416Z,100693.56
2023-02-28T17:40:58.246Z,100649.06
2023-02-28T17:43:28.034Z,100692.84
2023-02-28T17:45:57.108Z,100677.59
2023-02-28T17:48:26.882Z,100695.91
2023-02-28T17:50:55.427Z,100682.28
2023-02-28T17:53:26.034Z,100666.88
2023-02-28T17:55:54.752Z,100688.91
2023-02-28T17:58:24.179Z,100676.88
2023-02-28T18:00:55.889Z,100678.59
2023-02-28T18:03:25.469Z,100676.97
2023-02-28T18:05:53.986Z,100678.66
2023-02-28T18:08:22.428Z,100685.47
2023-02-28T18:10:50.951Z,100684.50
2023-02-28T18:13:19.519Z,100700.13
2023-02-28T18:15:48.734Z,100689.03
2023-02-28T18:18:17.693Z,100636.78
2023-02-28T18:20:47.964Z,100687.31
2023-02-28T18:23:18.956Z,100661.56
2023-02-28T18:25:47.414Z,100689.09
2023-02-28T18:28:15.586Z,100671.94
2023-02-28T18:30:44.337Z,100681.38
2023-02-28T18:33:12.497Z,100679.47
2023-02-28T18:35:41.962Z,100624.94
2023-02-28T18:38:22.886Z,100636.44
2023-02-28T18:41:01.477Z,100671.84
2023-02-28T18:43:32.852Z,100644.63
2023-02-28T18:46:14.180Z,100691.16
2023-02-28T18:48:43.047Z,100681.81
2023-02-28T18:51:31.008Z,100683.59
2023-02-28T18:54:00.163Z,100689.75
2023-02-28T18:56:28.738Z,100683.69
2023-02-28T18:58:57.007Z,100651.25
2023-02-28T19:01:30.399Z,100627.50
2023-02-28T19:04:03.791Z,100671.94
2023-02-28T19:06:33.351Z,100677.16
2023-02-28T19:09:04.224Z,100678.94
2023-02-28T19:11:35.683Z,100675.50
2023-02-28T19:14:04.835Z,100634.41
2023-02-28T19:16:33.537Z,100631.03
2023-02-28T19:19:02.965Z,100635.47
2023-02-28T19:21:31.878Z,100684.50
2023-02-28T19:24:02.916Z,100677.59
2023-02-28T19:26:31.780Z,100621.88
2023-02-28T19:29:06.815Z,100669.81
2023-02-28T19:31:35.862Z,100663.34
2023-02-28T19:34:04.759Z,100659.69
2023-02-28T19:36:35.162Z,100655.41
2023-02-28T19:39:05.824Z,100604.06
2023-02-28T19:41:34.156Z,100605.09
2023-02-28T19:44:02.478Z,100657.97
2023-02-28T19:46:30.926Z,100581.53
2023-02-28T19:48:59.902Z,100657.75
2023-02-28T19:51:29.160Z,100609.03
2023-02-28T19:53:58.226Z,100665.34
2023-02-28T19:56:26.633Z,100660.34
2023-02-28T19:58:58.270Z,100613.59
2023-02-28T20:01:27.289Z,100626.72
2023-02-28T20:03:56.778Z,100667.94
2023-02-28T20:06:25.604Z,100626.88
2023-02-28T20:08:55.882Z,100664.66
2023-02-28T20:11:25.057Z,100603.94
2023-02-28T20:13:55.476Z,100661.50
2023-02-28T20:16:29.863Z,100665.03
2023-02-28T20:19:00.134Z,100616.06
2023-02-28T20:21:29.397Z,100657.22
2023-02-28T20:23:58.997Z,100596.56
2023-02-28T20:26:28.524Z,100650.47
2023-02-28T20:28:58.231Z,100655.44
2023-02-28T20:31:29.420Z,100657.34
2023-02-28T20:33:58.370Z,100656.84
2023-02-28T20:36:27.697Z,100593.44
2023-02-28T20:38:57.396Z,100658.63
2023-02-28T20:41:26.550Z,100612.19
2023-02-28T20:43:59.868Z,100653.44
2023-02-28T20:46:29.167Z,100584.78
2023-02-28T20:48:58.525Z,100605.50
2023-02-28T20:51:27.443Z,100597.22
2023-02-28T20:53:56.564Z,100652.97
2023-02-28T20:56:25.223Z,100655.69
2023-02-28T20:58:57.338Z,100638.56
2023-02-28T21:01:29.341Z,100657.66
2023-02-28T21:04:02.714Z,100654.38
2023-02-28T21:06:38.384Z,100661.44
2023-02-28T21:09:09.916Z,100652.94
2023-02-28T21:11:40.490Z,100671.16
2023-02-28T21:14:17.345Z,100655.44
2023-02-28T21:16:48.603Z,100663.13
2023-02-28T21:19:18.895Z,100668.44
2023-02-28T21:21:48.488Z,100646.97
2023-02-28T21:24:20.229Z,100661.50
2023-02-28T21:26:49.546Z,100668.47
2023-02-28T21:29:17.930Z,100664.00
2023-02-28T21:31:46.780Z,100647.38
2023-02-28T21:34:15.371Z,100593.28
2023-02-28T21:36:48.485Z,100654.59
2023-02-28T21:39:22.117Z,100552.56
2023-02-28T21:41:50.565Z,100603.16
2023-02-28T21:44:19.846Z,100612.88
2023-02-28T21:46:52.814Z,100659.31
2023-02-28T21:49:21.153Z,100617.25
2023-02-28T21:51:49.910Z,100641.84
2023-02-28T21:54:19.165Z,100656.41
2023-02-28T21:56:47.500Z,100658.28
2023-02-28T21:59:16.209Z,100609.50
2023-02-28T22:01:46.464Z,100668.69
2023-02-28T22:04:23.709Z,100660.19
2023-02-28T22:06:57.375Z,100637.91
2023-02-28T22:09:26.829Z,100605.63
2023-02-28T22:11:56.546Z,100663.16
2023-02-28T22:14:27.043Z,100654.69
2023-02-28T22:16:57.371Z,100671.22
2023-02-28T22:19:28.206Z,100670.44
2023-02-28T22:21:58.973Z,100671.34
2023-02-28T22:24:27.702Z,100676.59
2023-02-28T22:26:56.256Z,100669.84
2023-02-28T22:29:25.095Z,100536.19
2023-02-28T22:31:53.227Z,100590.06
2023-02-28T22:34:21.408Z,100664.47
2023-02-28T22:36:50.124Z,100654.19
2023-02-28T22:39:18.420Z,100615.63
2023-02-28T22:41:46.963Z,100646.28
2023-02-28T22:44:16.653Z,100668.06
2023-02-28T22:46:45.418Z,100650.38
2023-02-28T22:49:13.692Z,100677.13
2023-02-28T22:51:42.182Z,100675.38
2023-02-28T22:54:10.380Z,100629.22
2023-02-28T22:56:38.764Z,100673.75
2023-02-28T22:59:06.947Z,100635.22
2023-02-28T23:01:36.210Z,100675.47
2023-02-28T23:04:05.204Z,100668.38
2023-02-28T23:06:42.422Z,100649.34
2023-02-28T23:09:23.979Z,100654.91
2023-02-28T23:11:52.958Z,100661.56
2023-02-28T23:14:22.490Z,100601.44
2023-02-28T23:16:55.677Z,100591.78
2023-02-28T23:19:30.312Z,100655.09
2023-02-28T23:22:01.079Z,100643.00
2023-02-28T23:24:33.812Z,100624.72
2023-02-28T23:27:06.105Z,100581.00
2023-02-28T23:29:35.876Z,100624.47
2023-02-28T23:32:05.840Z,100488.41
2023-02-28T23:34:34.282Z,100645.63
2023-02-28T23:37:02.978Z,100653.44
2023-02-28T23:39:32.025Z,100597.31
2023-02-28T23:42:02.116Z,100596.78
2023-02-28T23:44:30.899Z,100646.69
2023-02-28T23:46:59.317Z,100601.31
2023-02-28T23:49:28.052Z,100602.06
2023-02-28T23:51:56.417Z,100650.94
2023-02-28T23:54:24.865Z,100655.75
2023-02-28T23:56:54.610Z,100646.50
2023-02-28T23:59:23.325Z,100618.28
